sensor_id;sensor_type;location;lat;lon;timestamp;temperature;humidity
30308;DHT22;17114;52.314;8.910;2022-07-22T00:00:06;18.20;99.90
30308;DHT22;17114;52.314;8.910;2022-07-22T00:02:37;18.20;99.90
30308;DHT22;17114;52.314;8.910;2022-07-22T00:05:04;18.10;99.90
30308;DHT22;17114;52.314;8.910;2022-07-22T00:07:31;18.10;99.90
30308;DHT22;17114;52.314;8.910;2022-07-22T00:09:58;18.10;99.90
30308;DHT22;17114;52.314;8.910;2022-07-22T00:12:25;18.10;99.90
30308;DHT22;17114;52.314;8.910;2022-07-22T00:14:52;18.10;99.90
30308;DHT22;17114;52.314;8.910;2022-07-22T00:17:19;18.10;99.90
30308;DHT22;17114;52.314;8.910;2022-07-22T00:19:47;18.10;99.90
30308;DHT22;17114;52.314;8.910;2022-07-22T00:22:13;18.10;99.90
30308;DHT22;17114;52.314;8.910;2022-07-22T00:24:40;18.00;99.90
30308;DHT22;17114;52.314;8.910;2022-07-22T00:27:07;18.00;99.90
30308;DHT22;17114;52.314;8.910;2022-07-22T00:29:34;18.00;99.90
30308;DHT22;17114;52.314;8.910;2022-07-22T00:32:01;17.90;99.90
30308;DHT22;17114;52.314;8.910;2022-07-22T00:34:31;17.90;99.90
30308;DHT22;17114;52.314;8.910;2022-07-22T00:36:58;17.90;99.90
30308;DHT22;17114;52.314;8.910;2022-07-22T00:39:25;17.80;99.90
30308;DHT22;17114;52.314;8.910;2022-07-22T00:41:52;17.90;99.90
30308;DHT22;17114;52.314;8.910;2022-07-22T00:44:20;17.80;99.90
30308;DHT22;17114;52.314;8.910;2022-07-22T00:46:47;17.70;99.90
30308;DHT22;17114;52.314;8.910;2022-07-22T00:49:14;17.60;99.90
30308;DHT22;17114;52.314;8.910;2022-07-22T00:51:41;17.60;99.90
30308;DHT22;17114;52.314;8.910;2022-07-22T00:54:08;17.50;99.90
30308;DHT22;17114;52.314;8.910;2022-07-22T00:56:36;17.50;99.90
30308;DHT22;17114;52.314;8.910;2022-07-22T00:59:08;17.40;99.90
30308;DHT22;17114;52.314;8.910;2022-07-22T01:01:35;17.40;99.90
30308;DHT22;17114;52.314;8.910;2022-07-22T01:04:03;17.30;99.90
30308;DHT22;17114;52.314;8.910;2022-07-22T01:06:30;17.30;99.90
30308;DHT22;17114;52.314;8.910;2022-07-22T01:08:58;17.20;99.90
30308;DHT22;17114;52.314;8.910;2022-07-22T01:11:25;17.20;99.90
30308;DHT22;17114;52.314;8.910;2022-07-22T01:13:55;17.10;99.90
30308;DHT22;17114;52.314;8.910;2022-07-22T01:16:22;17.10;99.90
30308;DHT22;17114;52.314;8.910;2022-07-22T01:18:49;17.00;99.90
30308;DHT22;17114;52.314;8.910;2022-07-22T01:21:17;17.00;99.90
30308;DHT22;17114;52.314;8.910;2022-07-22T01:23:44;17.00;99.90
30308;DHT22;17114;52.314;8.910;2022-07-22T01:26:12;17.00;99.90
30308;DHT22;17114;52.314;8.910;2022-07-22T01:28:40;17.00;99.90
30308;DHT22;17114;52.314;8.910;2022-07-22T01:31:08;16.90;99.90
30308;DHT22;17114;52.314;8.910;2022-07-22T01:33:35;16.90;99.90
30308;DHT22;17114;52.314;8.910;2022-07-22T01:36:03;16.90;99.90
30308;DHT22;17114;52.314;8.910;2022-07-22T01:38:30;16.80;99.90
30308;DHT22;17114;52.314;8.910;2022-07-22T01:40:57;16.80;99.90
30308;DHT22;17114;52.314;8.910;2022-07-22T01:43:24;16.80;99.90
30308;DHT22;17114;52.314;8.910;2022-07-22T01:45:52;16.70;99.90
30308;DHT22;17114;52.314;8.910;2022-07-22T01:48:20;16.70;99.90
30308;DHT22;17114;52.314;8.910;2022-07-22T01:50:47;16.70;99.90
30308;DHT22;17114;52.314;8.910;2022-07-22T01:53:15;16.60;99.90
30308;DHT22;17114;52.314;8.910;2022-07-22T01:55:42;16.60;99.90
30308;DHT22;17114;52.314;8.910;2022-07-22T01:58:09;16.50;99.90
30308;DHT22;17114;52.314;8.910;2022-07-22T02:00:36;16.50;99.90
30308;DHT22;17114;52.314;8.910;2022-07-22T02:03:04;16.50;99.90
30308;DHT22;17114;52.314;8.910;2022-07-22T02:05:32;16.40;99.90
30308;DHT22;17114;52.314;8.910;2022-07-22T02:08:04;16.40;99.90
30308;DHT22;17114;52.314;8.910;2022-07-22T02:10:32;16.40;99.90
30308;DHT22;17114;52.314;8.910;2022-07-22T02:13:03;16.30;99.90
30308;DHT22;17114;52.314;8.910;2022-07-22T02:15:32;16.30;99.90
30308;DHT22;17114;52.314;8.910;2022-07-22T02:18:00;16.30;99.90
30308;DHT22;17114;52.314;8.910;2022-07-22T02:20:27;16.30;99.90
30308;DHT22;17114;52.314;8.910;2022-07-22T02:22:54;16.30;99.90
30308;DHT22;17114;52.314;8.910;2022-07-22T02:25:21;16.30;99.90
30308;DHT22;17114;52.314;8.910;2022-07-22T02:27:48;16.30;99.90
30308;DHT22;17114;52.314;8.910;2022-07-22T02:30:15;16.30;99.90
30308;DHT22;17114;52.314;8.910;2022-07-22T02:32:45;16.30;99.90
30308;DHT22;17114;52.314;8.910;2022-07-22T02:35:12;16.30;99.90
30308;DHT22;17114;52.314;8.910;2022-07-22T02:37:38;16.20;99.90
30308;DHT22;17114;52.314;8.910;2022-07-22T02:40:08;16.30;99.90
30308;DHT22;17114;52.314;8.910;2022-07-22T02:42:35;16.20;99.90
30308;DHT22;17114;52.314;8.910;2022-07-22T02:45:02;16.20;99.90
30308;DHT22;17114;52.314;8.910;2022-07-22T02:47:30;16.30;99.90
30308;DHT22;17114;52.314;8.910;2022-07-22T02:49:56;16.30;99.90
30308;DHT22;17114;52.314;8.910;2022-07-22T02:52:23;16.30;99.90
30308;DHT22;17114;52.314;8.910;2022-07-22T02:54:50;16.30;99.90
30308;DHT22;17114;52.314;8.910;2022-07-22T02:57:17;16.30;99.90
30308;DHT22;17114;52.314;8.910;2022-07-22T02:59:44;16.30;99.90
30308;DHT22;17114;52.314;8.910;2022-07-22T03:02:11;16.30;99.90
30308;DHT22;17114;52.314;8.910;2022-07-22T03:04:38;16.20;99.90
30308;DHT22;17114;52.314;8.910;2022-07-22T03:07:05;16.20;99.90
30308;DHT22;17114;52.314;8.910;2022-07-22T03:09:32;16.20;99.90
30308;DHT22;17114;52.314;8.910;2022-07-22T03:11:59;16.20;99.90
30308;DHT22;17114;52.314;8.910;2022-07-22T03:14:25;16.20;99.90
30308;DHT22;17114;52.314;8.910;2022-07-22T03:16:52;16.10;99.90
30308;DHT22;17114;52.314;8.910;2022-07-22T03:19:19;16.10;99.90
30308;DHT22;17114;52.314;8.910;2022-07-22T03:21:46;16.20;99.90
30308;DHT22;17114;52.314;8.910;2022-07-22T03:24:13;16.10;99.90
30308;DHT22;17114;52.314;8.910;2022-07-22T03:26:40;16.20;99.90
30308;DHT22;17114;52.314;8.910;2022-07-22T03:29:07;16.10;99.90
30308;DHT22;17114;52.314;8.910;2022-07-22T03:31:34;16.10;99.90
30308;DHT22;17114;52.314;8.910;2022-07-22T03:34:01;16.10;99.90
30308;DHT22;17114;52.314;8.910;2022-07-22T03:36:29;16.10;99.90
30308;DHT22;17114;52.314;8.910;2022-07-22T03:38:56;16.10;99.90
30308;DHT22;17114;52.314;8.910;2022-07-22T03:41:24;16.10;99.90
30308;DHT22;17114;52.314;8.910;2022-07-22T03:43:51;16.10;99.90
30308;DHT22;17114;52.314;8.910;2022-07-22T03:46:18;16.00;99.90
30308;DHT22;17114;52.314;8.910;2022-07-22T03:48:45;16.10;99.90
30308;DHT22;17114;52.314;8.910;2022-07-22T03:51:12;16.00;99.90
30308;DHT22;17114;52.314;8.910;2022-07-22T03:53:39;16.10;99.90
30308;DHT22;17114;52.314;8.910;2022-07-22T03:56:06;16.00;99.90
30308;DHT22;17114;52.314;8.910;2022-07-22T03:58:33;16.00;99.90
30308;DHT22;17114;52.314;8.910;2022-07-22T04:01:00;16.00;99.90
30308;DHT22;17114;52.314;8.910;2022-07-22T04:03:27;16.00;99.90
30308;DHT22;17114;52.314;8.910;2022-07-22T04:05:54;16.00;99.90
30308;DHT22;17114;52.314;8.910;2022-07-22T04:08:21;16.00;99.90
30308;DHT22;17114;52.314;8.910;2022-07-22T04:10:48;16.00;99.90
30308;DHT22;17114;52.314;8.910;2022-07-22T04:13:17;16.00;99.90
30308;DHT22;17114;52.314;8.910;2022-07-22T04:15:44;16.00;99.90
30308;DHT22;17114;52.314;8.910;2022-07-22T04:18:12;16.00;99.90
30308;DHT22;17114;52.314;8.910;2022-07-22T04:20:39;16.00;99.90
30308;DHT22;17114;52.314;8.910;2022-07-22T04:23:05;16.10;99.90
30308;DHT22;17114;52.314;8.910;2022-07-22T04:25:32;16.00;99.90
30308;DHT22;17114;52.314;8.910;2022-07-22T04:28:00;16.10;99.90
30308;DHT22;17114;52.314;8.910;2022-07-22T04:30:27;16.00;99.90
30308;DHT22;17114;52.314;8.910;2022-07-22T04:32:54;16.00;99.90
30308;DHT22;17114;52.314;8.910;2022-07-22T04:35:21;16.10;99.90
30308;DHT22;17114;52.314;8.910;2022-07-22T04:37:48;16.10;99.90
30308;DHT22;17114;52.314;8.910;2022-07-22T04:40:14;16.10;99.90
30308;DHT22;17114;52.314;8.910;2022-07-22T04:42:41;16.10;99.90
30308;DHT22;17114;52.314;8.910;2022-07-22T04:45:09;16.00;99.90
30308;DHT22;17114;52.314;8.910;2022-07-22T04:47:36;16.10;99.90
30308;DHT22;17114;52.314;8.910;2022-07-22T04:50:03;16.10;99.90
30308;DHT22;17114;52.314;8.910;2022-07-22T04:52:30;16.10;99.90
30308;DHT22;17114;52.314;8.910;2022-07-22T04:54:56;16.10;99.90
30308;DHT22;17114;52.314;8.910;2022-07-22T04:57:26;16.10;99.90
30308;DHT22;17114;52.314;8.910;2022-07-22T04:59:53;16.10;99.90
30308;DHT22;17114;52.314;8.910;2022-07-22T05:02:20;16.10;99.90
30308;DHT22;17114;52.314;8.910;2022-07-22T05:04:47;16.00;99.90
30308;DHT22;17114;52.314;8.910;2022-07-22T05:07:14;16.00;99.90
30308;DHT22;17114;52.314;8.910;2022-07-22T05:09:41;16.00;99.90
30308;DHT22;17114;52.314;8.910;2022-07-22T05:12:08;16.00;99.90
30308;DHT22;17114;52.314;8.910;2022-07-22T05:14:35;16.00;99.90
30308;DHT22;17114;52.314;8.910;2022-07-22T05:17:02;16.00;99.90
30308;DHT22;17114;52.314;8.910;2022-07-22T05:19:29;16.00;99.90
30308;DHT22;17114;52.314;8.910;2022-07-22T05:21:56;16.00;99.90
30308;DHT22;17114;52.314;8.910;2022-07-22T05:24:23;16.00;99.90
30308;DHT22;17114;52.314;8.910;2022-07-22T05:26:49;16.10;99.90
30308;DHT22;17114;52.314;8.910;2022-07-22T05:29:16;16.10;99.90
30308;DHT22;17114;52.314;8.910;2022-07-22T05:31:43;16.10;99.90
30308;DHT22;17114;52.314;8.910;2022-07-22T05:34:13;16.10;99.90
30308;DHT22;17114;52.314;8.910;2022-07-22T05:36:40;16.20;99.90
30308;DHT22;17114;52.314;8.910;2022-07-22T05:39:07;16.30;99.90
30308;DHT22;17114;52.314;8.910;2022-07-22T05:41:34;16.30;99.90
30308;DHT22;17114;52.314;8.910;2022-07-22T05:44:01;16.30;99.90
30308;DHT22;17114;52.314;8.910;2022-07-22T05:46:27;16.40;99.90
30308;DHT22;17114;52.314;8.910;2022-07-22T05:48:54;16.40;99.90
30308;DHT22;17114;52.314;8.910;2022-07-22T05:51:22;16.50;99.90
30308;DHT22;17114;52.314;8.910;2022-07-22T05:53:49;16.40;99.90
30308;DHT22;17114;52.314;8.910;2022-07-22T05:56:16;16.40;99.90
30308;DHT22;17114;52.314;8.910;2022-07-22T05:58:43;16.50;99.90
30308;DHT22;17114;52.314;8.910;2022-07-22T06:01:10;16.50;99.90
30308;DHT22;17114;52.314;8.910;2022-07-22T06:03:38;16.50;99.90
30308;DHT22;17114;52.314;8.910;2022-07-22T06:06:05;16.50;99.90
30308;DHT22;17114;52.314;8.910;2022-07-22T06:08:35;16.60;99.90
30308;DHT22;17114;52.314;8.910;2022-07-22T06:11:02;16.60;99.90
30308;DHT22;17114;52.314;8.910;2022-07-22T06:13:29;16.60;99.90
30308;DHT22;17114;52.314;8.910;2022-07-22T06:15:56;16.60;99.90
30308;DHT22;17114;52.314;8.910;2022-07-22T06:18:23;16.60;99.90
30308;DHT22;17114;52.314;8.910;2022-07-22T06:20:50;16.60;99.90
30308;DHT22;17114;52.314;8.910;2022-07-22T06:23:17;16.70;99.90
30308;DHT22;17114;52.314;8.910;2022-07-22T06:25:44;16.70;99.90
30308;DHT22;17114;52.314;8.910;2022-07-22T06:28:11;16.80;99.90
30308;DHT22;17114;52.314;8.910;2022-07-22T06:30:39;16.80;99.90
30308;DHT22;17114;52.314;8.910;2022-07-22T06:33:06;16.80;99.90
30308;DHT22;17114;52.314;8.910;2022-07-22T06:35:33;16.70;99.90
30308;DHT22;17114;52.314;8.910;2022-07-22T06:38:21;16.40;99.90
30308;DHT22;17114;52.314;8.910;2022-07-22T06:41:04;16.20;99.90
30308;DHT22;17114;52.314;8.910;2022-07-22T06:43:31;16.00;99.90
30308;DHT22;17114;52.314;8.910;2022-07-22T06:45:58;16.00;99.90
30308;DHT22;17114;52.314;8.910;2022-07-22T06:48:25;15.90;99.90
30308;DHT22;17114;52.314;8.910;2022-07-22T06:50:53;15.90;99.90
30308;DHT22;17114;52.314;8.910;2022-07-22T06:53:20;15.90;99.90
30308;DHT22;17114;52.314;8.910;2022-07-22T06:55:47;15.90;99.90
30308;DHT22;17114;52.314;8.910;2022-07-22T06:58:15;15.90;99.90
30308;DHT22;17114;52.314;8.910;2022-07-22T07:00:42;16.00;99.90
30308;DHT22;17114;52.314;8.910;2022-07-22T07:03:09;16.00;99.90
30308;DHT22;17114;52.314;8.910;2022-07-22T07:05:56;16.00;99.90
30308;DHT22;17114;52.314;8.910;2022-07-22T07:08:23;16.10;99.90
30308;DHT22;17114;52.314;8.910;2022-07-22T07:10:52;16.20;99.90
30308;DHT22;17114;52.314;8.910;2022-07-22T07:13:19;16.30;99.90
30308;DHT22;17114;52.314;8.910;2022-07-22T07:15:46;16.30;99.90
30308;DHT22;17114;52.314;8.910;2022-07-22T07:18:13;16.40;99.90
30308;DHT22;17114;52.314;8.910;2022-07-22T07:20:40;16.50;99.90
30308;DHT22;17114;52.314;8.910;2022-07-22T07:23:12;16.60;99.90
30308;DHT22;17114;52.314;8.910;2022-07-22T07:25:42;16.60;99.90
30308;DHT22;17114;52.314;8.910;2022-07-22T07:28:09;16.70;99.90
30308;DHT22;17114;52.314;8.910;2022-07-22T07:30:36;16.80;99.90
30308;DHT22;17114;52.314;8.910;2022-07-22T07:33:03;16.90;99.90
30308;DHT22;17114;52.314;8.910;2022-07-22T07:35:30;17.00;99.90
30308;DHT22;17114;52.314;8.910;2022-07-22T07:37:57;17.10;99.90
30308;DHT22;17114;52.314;8.910;2022-07-22T07:40:28;17.20;99.90
30308;DHT22;17114;52.314;8.910;2022-07-22T07:42:57;17.20;99.90
30308;DHT22;17114;52.314;8.910;2022-07-22T07:45:29;17.60;99.90
30308;DHT22;17114;52.314;8.910;2022-07-22T07:47:56;17.70;99.90
30308;DHT22;17114;52.314;8.910;2022-07-22T07:50:23;17.70;99.90
30308;DHT22;17114;52.314;8.910;2022-07-22T07:52:50;17.90;99.90
30308;DHT22;17114;52.314;8.910;2022-07-22T07:55:19;18.30;99.90
30308;DHT22;17114;52.314;8.910;2022-07-22T07:57:48;18.60;99.90
30308;DHT22;17114;52.314;8.910;2022-07-22T08:00:23;18.80;99.90
30308;DHT22;17114;52.314;8.910;2022-07-22T08:02:51;18.90;99.90
30308;DHT22;17114;52.314;8.910;2022-07-22T08:05:18;19.10;99.90
30308;DHT22;17114;52.314;8.910;2022-07-22T08:07:48;19.30;99.90
30308;DHT22;17114;52.314;8.910;2022-07-22T08:10:16;19.40;99.90
30308;DHT22;17114;52.314;8.910;2022-07-22T08:13:04;19.50;99.90
30308;DHT22;17114;52.314;8.910;2022-07-22T08:15:31;19.60;99.90
30308;DHT22;17114;52.314;8.910;2022-07-22T08:17:58;19.50;99.90
30308;DHT22;17114;52.314;8.910;2022-07-22T08:20:27;19.50;99.90
30308;DHT22;17114;52.314;8.910;2022-07-22T08:22:54;19.50;99.90
30308;DHT22;17114;52.314;8.910;2022-07-22T08:25:21;19.40;99.90
30308;DHT22;17114;52.314;8.910;2022-07-22T08:27:49;19.20;99.90
30308;DHT22;17114;52.314;8.910;2022-07-22T08:30:16;18.90;99.90
30308;DHT22;17114;52.314;8.910;2022-07-22T08:32:44;18.70;99.90
30308;DHT22;17114;52.314;8.910;2022-07-22T08:35:10;18.70;99.90
30308;DHT22;17114;52.314;8.910;2022-07-22T08:37:37;18.80;99.90
30308;DHT22;17114;52.314;8.910;2022-07-22T08:40:06;19.00;99.90
30308;DHT22;17114;52.314;8.910;2022-07-22T08:42:40;19.10;99.90
30308;DHT22;17114;52.314;8.910;2022-07-22T08:45:08;19.30;99.90
30308;DHT22;17114;52.314;8.910;2022-07-22T08:47:47;19.40;99.90
30308;DHT22;17114;52.314;8.910;2022-07-22T08:50:15;19.50;99.90
30308;DHT22;17114;52.314;8.910;2022-07-22T08:52:42;19.30;99.90
30308;DHT22;17114;52.314;8.910;2022-07-22T08:55:10;19.20;99.90
30308;DHT22;17114;52.314;8.910;2022-07-22T08:57:37;19.10;99.90
30308;DHT22;17114;52.314;8.910;2022-07-22T09:00:13;19.10;99.90
30308;DHT22;17114;52.314;8.910;2022-07-22T09:02:42;19.10;99.90
30308;DHT22;17114;52.314;8.910;2022-07-22T09:05:11;19.20;99.90
30308;DHT22;17114;52.314;8.910;2022-07-22T09:08:00;19.30;99.90
30308;DHT22;17114;52.314;8.910;2022-07-22T09:10:34;19.40;99.90
30308;DHT22;17114;52.314;8.910;2022-07-22T09:13:04;19.40;99.90
30308;DHT22;17114;52.314;8.910;2022-07-22T09:15:37;19.30;99.90
30308;DHT22;17114;52.314;8.910;2022-07-22T09:18:06;19.20;99.90
30308;DHT22;17114;52.314;8.910;2022-07-22T09:20:37;19.30;99.90
30308;DHT22;17114;52.314;8.910;2022-07-22T09:23:14;19.40;99.90
30308;DHT22;17114;52.314;8.910;2022-07-22T09:25:44;19.30;99.90
30308;DHT22;17114;52.314;8.910;2022-07-22T09:28:19;19.30;99.90
30308;DHT22;17114;52.314;8.910;2022-07-22T09:30:51;19.50;99.90
30308;DHT22;17114;52.314;8.910;2022-07-22T09:33:21;19.60;99.90
30308;DHT22;17114;52.314;8.910;2022-07-22T09:35:50;19.70;99.90
30308;DHT22;17114;52.314;8.910;2022-07-22T09:38:20;19.80;99.90
30308;DHT22;17114;52.314;8.910;2022-07-22T09:40:52;19.90;99.90
30308;DHT22;17114;52.314;8.910;2022-07-22T09:43:21;20.00;99.90
30308;DHT22;17114;52.314;8.910;2022-07-22T09:45:53;20.00;99.90
30308;DHT22;17114;52.314;8.910;2022-07-22T09:48:24;20.00;99.90
30308;DHT22;17114;52.314;8.910;2022-07-22T09:50:53;20.10;99.90
30308;DHT22;17114;52.314;8.910;2022-07-22T09:53:24;20.00;99.90
30308;DHT22;17114;52.314;8.910;2022-07-22T09:55:51;19.90;99.90
30308;DHT22;17114;52.314;8.910;2022-07-22T09:58:18;19.90;99.90
30308;DHT22;17114;52.314;8.910;2022-07-22T10:00:46;19.70;99.90
30308;DHT22;17114;52.314;8.910;2022-07-22T10:03:34;19.60;99.90
30308;DHT22;17114;52.314;8.910;2022-07-22T10:06:04;19.60;99.90
30308;DHT22;17114;52.314;8.910;2022-07-22T10:08:32;19.60;99.90
30308;DHT22;17114;52.314;8.910;2022-07-22T10:11:06;19.60;99.90
30308;DHT22;17114;52.314;8.910;2022-07-22T10:13:33;19.50;99.90
30308;DHT22;17114;52.314;8.910;2022-07-22T10:16:01;19.40;99.90
30308;DHT22;17114;52.314;8.910;2022-07-22T10:18:29;19.20;99.90
30308;DHT22;17114;52.314;8.910;2022-07-22T10:21:08;19.00;99.90
30308;DHT22;17114;52.314;8.910;2022-07-22T10:23:42;18.80;99.90
30308;DHT22;17114;52.314;8.910;2022-07-22T10:29:29;19.00;99.90
30308;DHT22;17114;52.314;8.910;2022-07-22T10:34:43;18.80;99.90
30308;DHT22;17114;52.314;8.910;2022-07-22T10:40:21;18.90;99.90
30308;DHT22;17114;52.314;8.910;2022-07-22T10:45:25;19.00;99.90
30308;DHT22;17114;52.314;8.910;2022-07-22T10:47:58;19.20;99.90
30308;DHT22;17114;52.314;8.910;2022-07-22T10:53:17;19.60;99.90
30308;DHT22;17114;52.314;8.910;2022-07-22T10:56:02;19.80;99.90
30308;DHT22;17114;52.314;8.910;2022-07-22T11:01:11;20.00;99.90
30308;DHT22;17114;52.314;8.910;2022-07-22T11:03:40;20.00;99.90
30308;DHT22;17114;52.314;8.910;2022-07-22T11:06:23;19.80;99.90
30308;DHT22;17114;52.314;8.910;2022-07-22T11:08:56;19.80;99.90
30308;DHT22;17114;52.314;8.910;2022-07-22T11:11:44;19.80;99.90
30308;DHT22;17114;52.314;8.910;2022-07-22T11:14:14;19.60;99.90
30308;DHT22;17114;52.314;8.910;2022-07-22T11:16:42;19.50;99.90
30308;DHT22;17114;52.314;8.910;2022-07-22T11:19:09;19.50;99.90
30308;DHT22;17114;52.314;8.910;2022-07-22T11:21:36;19.50;99.90
30308;DHT22;17114;52.314;8.910;2022-07-22T11:24:11;19.40;99.90
30308;DHT22;17114;52.314;8.910;2022-07-22T11:26:48;19.30;99.90
30308;DHT22;17114;52.314;8.910;2022-07-22T11:29:37;19.30;99.90
30308;DHT22;17114;52.314;8.910;2022-07-22T11:32:09;19.30;99.90
30308;DHT22;17114;52.314;8.910;2022-07-22T11:34:38;19.30;99.90
30308;DHT22;17114;52.314;8.910;2022-07-22T11:37:09;19.20;99.90
30308;DHT22;17114;52.314;8.910;2022-07-22T11:39:39;19.20;99.90
30308;DHT22;17114;52.314;8.910;2022-07-22T11:42:06;19.10;99.90
30308;DHT22;17114;52.314;8.910;2022-07-22T11:44:36;19.00;99.90
30308;DHT22;17114;52.314;8.910;2022-07-22T11:47:04;19.10;99.90
30308;DHT22;17114;52.314;8.910;2022-07-22T11:49:33;19.30;99.90
30308;DHT22;17114;52.314;8.910;2022-07-22T11:52:02;19.30;99.90
30308;DHT22;17114;52.314;8.910;2022-07-22T11:54:29;19.40;99.90
30308;DHT22;17114;52.314;8.910;2022-07-22T11:56:56;19.40;99.90
30308;DHT22;17114;52.314;8.910;2022-07-22T11:59:23;19.50;99.90
30308;DHT22;17114;52.314;8.910;2022-07-22T12:01:50;19.70;99.90
30308;DHT22;17114;52.314;8.910;2022-07-22T12:04:21;19.70;99.90
30308;DHT22;17114;52.314;8.910;2022-07-22T12:06:49;19.80;99.90
30308;DHT22;17114;52.314;8.910;2022-07-22T12:09:23;19.80;99.90
30308;DHT22;17114;52.314;8.910;2022-07-22T12:11:53;20.10;99.90
30308;DHT22;17114;52.314;8.910;2022-07-22T12:14:26;20.30;99.90
30308;DHT22;17114;52.314;8.910;2022-07-22T12:17:05;20.50;99.90
30308;DHT22;17114;52.314;8.910;2022-07-22T12:19:34;20.70;99.90
30308;DHT22;17114;52.314;8.910;2022-07-22T12:22:05;20.90;99.90
30308;DHT22;17114;52.314;8.910;2022-07-22T12:29:52;21.00;99.90
30308;DHT22;17114;52.314;8.910;2022-07-22T12:34:58;21.20;99.90
30308;DHT22;17114;52.314;8.910;2022-07-22T12:37:32;21.30;99.90
30308;DHT22;17114;52.314;8.910;2022-07-22T12:40:06;21.40;99.90
30308;DHT22;17114;52.314;8.910;2022-07-22T12:42:38;21.50;99.90
30308;DHT22;17114;52.314;8.910;2022-07-22T12:45:16;21.30;99.90
30308;DHT22;17114;52.314;8.910;2022-07-22T12:47:48;21.10;99.90
30308;DHT22;17114;52.314;8.910;2022-07-22T12:55:49;20.40;99.90
30308;DHT22;17114;52.314;8.910;2022-07-22T12:58:25;20.30;99.90
30308;DHT22;17114;52.314;8.910;2022-07-22T13:00:54;20.20;99.90
30308;DHT22;17114;52.314;8.910;2022-07-22T13:03:22;20.00;99.90
30308;DHT22;17114;52.314;8.910;2022-07-22T13:05:54;20.00;99.90
30308;DHT22;17114;52.314;8.910;2022-07-22T13:08:22;20.10;99.90
30308;DHT22;17114;52.314;8.910;2022-07-22T13:10:51;20.20;99.90
30308;DHT22;17114;52.314;8.910;2022-07-22T13:13:20;20.20;99.90
30308;DHT22;17114;52.314;8.910;2022-07-22T13:15:48;20.20;99.90
30308;DHT22;17114;52.314;8.910;2022-07-22T13:18:16;20.30;99.90
30308;DHT22;17114;52.314;8.910;2022-07-22T13:20:43;20.30;99.90
30308;DHT22;17114;52.314;8.910;2022-07-22T13:23:10;20.20;99.90
30308;DHT22;17114;52.314;8.910;2022-07-22T13:25:37;20.10;99.90
30308;DHT22;17114;52.314;8.910;2022-07-22T13:28:04;20.00;99.90
30308;DHT22;17114;52.314;8.910;2022-07-22T13:30:31;20.00;99.90
30308;DHT22;17114;52.314;8.910;2022-07-22T13:32:58;20.00;99.90
30308;DHT22;17114;52.314;8.910;2022-07-22T13:35:25;20.10;99.90
30308;DHT22;17114;52.314;8.910;2022-07-22T13:37:52;20.10;99.90
30308;DHT22;17114;52.314;8.910;2022-07-22T13:40:19;20.00;99.90
30308;DHT22;17114;52.314;8.910;2022-07-22T13:42:46;19.90;99.90
30308;DHT22;17114;52.314;8.910;2022-07-22T13:45:13;20.00;99.90
30308;DHT22;17114;52.314;8.910;2022-07-22T13:47:41;19.90;99.90
30308;DHT22;17114;52.314;8.910;2022-07-22T13:50:08;19.90;99.90
30308;DHT22;17114;52.314;8.910;2022-07-22T13:52:35;19.90;99.90
30308;DHT22;17114;52.314;8.910;2022-07-22T13:55:03;19.80;99.90
30308;DHT22;17114;52.314;8.910;2022-07-22T13:57:30;19.70;99.90
30308;DHT22;17114;52.314;8.910;2022-07-22T13:59:57;19.70;99.90
30308;DHT22;17114;52.314;8.910;2022-07-22T14:02:23;19.70;99.90
30308;DHT22;17114;52.314;8.910;2022-07-22T14:04:51;19.70;99.90
30308;DHT22;17114;52.314;8.910;2022-07-22T14:07:18;19.50;99.90
30308;DHT22;17114;52.314;8.910;2022-07-22T14:09:45;19.40;99.90
30308;DHT22;17114;52.314;8.910;2022-07-22T14:12:12;19.40;99.90
30308;DHT22;17114;52.314;8.910;2022-07-22T14:14:39;19.30;99.90
30308;DHT22;17114;52.314;8.910;2022-07-22T14:17:05;19.30;99.90
30308;DHT22;17114;52.314;8.910;2022-07-22T14:19:33;19.40;99.90
30308;DHT22;17114;52.314;8.910;2022-07-22T14:22:00;19.50;99.90
30308;DHT22;17114;52.314;8.910;2022-07-22T14:24:27;19.60;99.90
30308;DHT22;17114;52.314;8.910;2022-07-22T14:26:54;19.70;99.90
30308;DHT22;17114;52.314;8.910;2022-07-22T14:29:21;19.70;99.90
30308;DHT22;17114;52.314;8.910;2022-07-22T14:31:49;19.70;99.90
30308;DHT22;17114;52.314;8.910;2022-07-22T14:34:16;19.80;99.90
30308;DHT22;17114;52.314;8.910;2022-07-22T14:36:44;19.90;99.90
30308;DHT22;17114;52.314;8.910;2022-07-22T14:39:11;20.00;99.90
30308;DHT22;17114;52.314;8.910;2022-07-22T14:41:38;20.10;99.90
30308;DHT22;17114;52.314;8.910;2022-07-22T14:44:05;20.10;99.90
30308;DHT22;17114;52.314;8.910;2022-07-22T14:46:32;20.20;99.90
30308;DHT22;17114;52.314;8.910;2022-07-22T14:48:59;20.20;99.90
30308;DHT22;17114;52.314;8.910;2022-07-22T14:51:26;20.20;99.90
30308;DHT22;17114;52.314;8.910;2022-07-22T14:53:54;20.20;99.90
30308;DHT22;17114;52.314;8.910;2022-07-22T14:56:21;20.10;99.90
30308;DHT22;17114;52.314;8.910;2022-07-22T14:58:48;20.10;99.90
30308;DHT22;17114;52.314;8.910;2022-07-22T15:01:15;20.20;99.90
30308;DHT22;17114;52.314;8.910;2022-07-22T15:03:42;20.20;99.90
30308;DHT22;17114;52.314;8.910;2022-07-22T15:06:09;20.10;99.90
30308;DHT22;17114;52.314;8.910;2022-07-22T15:08:37;20.00;99.90
30308;DHT22;17114;52.314;8.910;2022-07-22T15:11:04;19.80;99.90
30308;DHT22;17114;52.314;8.910;2022-07-22T15:13:32;19.70;99.90
30308;DHT22;17114;52.314;8.910;2022-07-22T15:15:58;19.60;99.90
30308;DHT22;17114;52.314;8.910;2022-07-22T15:18:26;19.50;99.90
30308;DHT22;17114;52.314;8.910;2022-07-22T15:20:53;19.50;99.90
30308;DHT22;17114;52.314;8.910;2022-07-22T15:23:24;19.50;99.90
30308;DHT22;17114;52.314;8.910;2022-07-22T15:25:54;19.50;99.90
30308;DHT22;17114;52.314;8.910;2022-07-22T15:28:21;19.50;99.90
30308;DHT22;17114;52.314;8.910;2022-07-22T15:31:04;19.50;99.90
30308;DHT22;17114;52.314;8.910;2022-07-22T15:33:32;19.60;99.90
30308;DHT22;17114;52.314;8.910;2022-07-22T15:36:08;19.60;99.90
30308;DHT22;17114;52.314;8.910;2022-07-22T15:38:36;19.70;99.90
30308;DHT22;17114;52.314;8.910;2022-07-22T15:41:04;19.70;99.90
30308;DHT22;17114;52.314;8.910;2022-07-22T15:43:35;19.60;99.90
30308;DHT22;17114;52.314;8.910;2022-07-22T15:46:21;19.60;99.90
30308;DHT22;17114;52.314;8.910;2022-07-22T15:48:48;19.50;99.90
30308;DHT22;17114;52.314;8.910;2022-07-22T15:51:16;19.50;99.90
30308;DHT22;17114;52.314;8.910;2022-07-22T15:53:43;19.50;99.90
30308;DHT22;17114;52.314;8.910;2022-07-22T15:56:10;19.40;99.90
30308;DHT22;17114;52.314;8.910;2022-07-22T15:58:37;19.50;99.90
30308;DHT22;17114;52.314;8.910;2022-07-22T16:01:43;19.40;99.90
30308;DHT22;17114;52.314;8.910;2022-07-22T16:04:10;19.40;99.90
30308;DHT22;17114;52.314;8.910;2022-07-22T16:06:37;19.40;99.90
30308;DHT22;17114;52.314;8.910;2022-07-22T16:09:04;19.40;99.90